Time;durP1;ratioP1;P1;durP2;ratioP2;P2;SDS_P1;SDS_P2;PMS_P1;PMS_P2;Temp;Humidity;BMP_temperature;BMP_pressure;BME280_temperature;BME280_humidity;BME280_pressure;Samples;Min_cycle;Max_cycle;Signal;HPM_P1;HPM_P2
2021/07/19 00:00:25;;;;;;;;;;;;;;;23.31;68.42;98795.69;5053697;28;1985;-59
2021/07/19 00:02:54;;;;;;;;;;;;;;;23.72;66.42;98789.41;5053608;28;822;-60
2021/07/19 00:05:23;;;;;;;;;;;;;;;23.88;65.42;98785.81;5053509;28;831;-59
2021/07/19 00:07:50;;;;;;;;;;;;;;;23.91;65.45;98781.19;5053906;28;866;-59
2021/07/19 00:10:18;;;;;;;;;;;;;;;23.90;65.53;98783.25;5053863;28;763;-59
2021/07/19 00:12:45;;;;;;;;;;;;;;;23.81;66.12;98787.13;5053823;28;968;-60
2021/07/19 00:15:14;;;;;;;;;;;;;;;23.67;66.69;98776.13;5053480;28;1365;-59
2021/07/19 00:17:42;;;;;;;;;;;;;;;23.60;67.32;98780.25;5053476;28;815;-59
2021/07/19 00:20:09;;;;;;;;;;;;;;;23.53;68.07;98780.75;5053348;28;1985;-59
2021/07/19 00:22:36;;;;;;;;;;;;;;;23.53;68.57;98775.13;5053244;28;887;-60
2021/07/19 00:25:04;;;;;;;;;;;;;;;23.65;67.48;98773.81;5053133;28;937;-59
2021/07/19 00:27:31;;;;;;;;;;;;;;;23.76;66.36;98785.06;5053219;28;810;-60
2021/07/19 00:29:57;;;;;;;;;;;;;;;23.59;66.79;98787.91;5053240;28;1041;-59
2021/07/19 00:32:24;;;;;;;;;;;;;;;23.34;67.74;98800.28;5053025;28;957;-60
2021/07/19 00:34:51;;;;;;;;;;;;;;;23.05;68.35;98807.25;5053156;28;862;-59
2021/07/19 00:37:17;;;;;;;;;;;;;;;22.79;69.44;98808.22;5053461;28;835;-59
2021/07/19 00:39:44;;;;;;;;;;;;;;;22.68;70.20;98808.19;5052864;28;1914;-60
2021/07/19 00:42:11;;;;;;;;;;;;;;;22.83;69.91;98820.03;5052985;28;802;-60
2021/07/19 00:44:38;;;;;;;;;;;;;;;22.84;70.08;98813.84;5053076;28;854;-59
2021/07/19 00:47:04;;;;;;;;;;;;;;;22.71;69.95;98821.28;5053098;28;826;-59
2021/07/19 00:49:32;;;;;;;;;;;;;;;22.60;70.32;98819.22;5052210;28;850;-59
2021/07/19 00:52:00;;;;;;;;;;;;;;;22.57;70.09;98820.22;5052704;28;902;-60
2021/07/19 00:54:28;;;;;;;;;;;;;;;22.57;70.06;98814.59;5052478;28;910;-59
2021/07/19 00:56:55;;;;;;;;;;;;;;;22.59;70.11;98801.53;5052700;28;815;-59
2021/07/19 00:59:23;;;;;;;;;;;;;;;22.75;69.71;98793.63;5052532;28;1951;-59
2021/07/19 01:01:50;;;;;;;;;;;;;;;22.96;69.38;98771.63;5052536;28;826;-60
2021/07/19 01:04:18;;;;;;;;;;;;;;;23.08;68.80;98766.75;5052601;28;959;-59
2021/07/19 01:06:46;;;;;;;;;;;;;;;23.16;68.50;98764.94;5034649;28;847;-59
2021/07/19 01:09:14;;;;;;;;;;;;;;;23.14;68.67;98756.25;5052420;28;901;-59
2021/07/19 01:11:40;;;;;;;;;;;;;;;23.23;67.83;98753.91;5052364;28;795;-59
2021/07/19 01:14:07;;;;;;;;;;;;;;;23.61;66.53;98751.50;5052163;28;1330;-59
2021/07/19 01:16:34;;;;;;;;;;;;;;;23.98;65.21;98755.22;5052263;28;894;-59
2021/07/19 01:19:00;;;;;;;;;;;;;;;24.28;64.48;98763.00;5052123;28;926;-59
2021/07/19 01:21:26;;;;;;;;;;;;;;;24.48;64.04;98756.22;5034361;28;1910;-59
2021/07/19 01:24:02;;;;;;;;;;;;;;;24.52;63.80;98768.81;5051995;28;992;-59
2021/07/19 01:26:40;;;;;;;;;;;;;;;24.59;63.52;98762.59;5052128;28;807;-59
2021/07/19 01:29:07;;;;;;;;;;;;;;;24.63;63.13;98762.31;5051994;28;902;-60
2021/07/19 01:31:36;;;;;;;;;;;;;;;24.68;61.93;98747.38;5052031;28;819;-60
2021/07/19 01:34:07;;;;;;;;;;;;;;;24.80;61.09;98737.50;5052036;28;862;-59
2021/07/19 01:36:43;;;;;;;;;;;;;;;24.95;59.90;98736.34;5033999;28;835;-59
2021/07/19 01:39:10;;;;;;;;;;;;;;;25.03;59.47;98760.69;5052425;28;1881;-59
2021/07/19 01:41:37;;;;;;;;;;;;;;;25.05;59.52;98775.06;5051928;28;831;-59
2021/07/19 01:44:06;;;;;;;;;;;;;;;25.01;59.74;98774.56;5051790;28;838;-60
2021/07/19 01:46:33;;;;;;;;;;;;;;;24.78;61.88;98768.34;5052314;28;869;-59
2021/07/19 01:49:00;;;;;;;;;;;;;;;24.45;62.68;98764.47;5052020;28;900;-59
2021/07/19 01:51:27;;;;;;;;;;;;;;;24.34;62.93;98772.97;5052224;28;845;-59
2021/07/19 01:53:56;;;;;;;;;;;;;;;24.30;62.35;98778.13;5051740;28;901;-59
2021/07/19 01:56:23;;;;;;;;;;;;;;;24.37;62.24;98776.84;5051861;28;960;-59
2021/07/19 01:58:50;;;;;;;;;;;;;;;24.30;62.33;98777.38;5051658;28;811;-59
2021/07/19 02:01:17;;;;;;;;;;;;;;;24.11;63.29;98780.03;5051651;28;1881;-59
2021/07/19 02:03:43;;;;;;;;;;;;;;;23.84;64.18;98794.53;5051592;28;878;-59
2021/07/19 02:06:11;;;;;;;;;;;;;;;23.63;64.94;98802.53;5051774;28;799;-59
2021/07/19 02:08:38;;;;;;;;;;;;;;;23.39;66.08;98807.97;5051548;28;830;-59
2021/07/19 02:11:07;;;;;;;;;;;;;;;23.04;66.49;98809.28;5051507;28;807;-59
2021/07/19 02:13:36;;;;;;;;;;;;;;;22.65;67.53;98817.69;5051634;28;1043;-59
2021/07/19 02:16:03;;;;;;;;;;;;;;;22.33;68.71;98815.06;5051221;28;1212;-59
2021/07/19 02:18:30;;;;;;;;;;;;;;;22.02;69.42;98802.66;5051551;28;850;-59
2021/07/19 02:20:59;;;;;;;;;;;;;;;21.79;70.12;98807.41;5051247;28;1909;-59
2021/07/19 02:23:26;;;;;;;;;;;;;;;21.66;70.83;98805.03;5051301;28;799;-59
2021/07/19 02:25:57;;;;;;;;;;;;;;;21.48;71.35;98809.00;5051291;28;842;-59
2021/07/19 02:28:25;;;;;;;;;;;;;;;21.34;72.80;98815.56;5051628;28;803;-59
2021/07/19 02:30:53;;;;;;;;;;;;;;;21.59;72.57;98814.72;5051267;28;862;-59
2021/07/19 02:33:20;;;;;;;;;;;;;;;21.84;72.37;98805.91;5051309;28;962;-59
2021/07/19 02:35:51;;;;;;;;;;;;;;;22.20;72.18;98816.25;5051420;28;949;-59
2021/07/19 02:38:18;;;;;;;;;;;;;;;22.59;71.03;98818.44;5051187;28;885;-59
2021/07/19 02:40:47;;;;;;;;;;;;;;;22.71;70.37;98826.91;5051132;28;1881;-59
2021/07/19 02:43:14;;;;;;;;;;;;;;;22.63;70.62;98827.41;5051190;28;803;-59
2021/07/19 02:45:44;;;;;;;;;;;;;;;22.31;70.75;98824.00;5051249;28;917;-59
2021/07/19 02:48:13;;;;;;;;;;;;;;;21.76;71.77;98817.63;5051137;28;873;-59
2021/07/19 02:50:41;;;;;;;;;;;;;;;21.28;73.19;98815.50;5051038;28;830;-60
2021/07/19 02:53:09;;;;;;;;;;;;;;;21.04;73.82;98815.84;5050948;28;858;-59
2021/07/19 02:55:37;;;;;;;;;;;;;;;20.92;74.47;98812.16;5051052;28;838;-59
2021/07/19 02:58:05;;;;;;;;;;;;;;;20.90;75.01;98814.69;5051074;28;870;-59
2021/07/19 03:00:32;;;;;;;;;;;;;;;21.00;75.38;98812.50;5050852;28;1949;-59
2021/07/19 03:03:07;;;;;;;;;;;;;;;21.34;75.28;98827.56;5051167;28;881;-59
2021/07/19 03:05:43;;;;;;;;;;;;;;;21.67;74.28;98806.56;5050904;28;791;-59
2021/07/19 03:08:11;;;;;;;;;;;;;;;21.79;73.95;98824.28;5051012;28;905;-59
2021/07/19 03:10:39;;;;;;;;;;;;;;;21.77;73.45;98827.59;5051244;28;811;-59
2021/07/19 03:13:13;;;;;;;;;;;;;;;21.60;73.54;98826.72;5051893;28;926;-59
2021/07/19 03:15:41;;;;;;;;;;;;;;;21.36;74.28;98825.03;5054380;28;1249;-59
2021/07/19 03:18:09;;;;;;;;;;;;;;;21.13;74.60;98826.91;5054757;28;898;-59
2021/07/19 03:20:38;;;;;;;;;;;;;;;20.99;74.91;98824.97;5054251;28;1917;-59
2021/07/19 03:23:06;;;;;;;;;;;;;;;20.96;75.31;98832.38;5054716;28;807;-59
2021/07/19 03:25:34;;;;;;;;;;;;;;;21.05;75.43;98825.03;5054631;28;894;-60
2021/07/19 03:28:00;;;;;;;;;;;;;;;21.24;75.08;98829.03;5054381;28;874;-59
2021/07/19 03:30:27;;;;;;;;;;;;;;;21.40;75.26;98833.22;5054235;28;834;-59
2021/07/19 03:32:54;;;;;;;;;;;;;;;21.58;74.71;98841.28;5054271;28;879;-59
2021/07/19 03:35:24;;;;;;;;;;;;;;;21.69;74.89;98834.97;5054463;28;835;-59
2021/07/19 03:37:51;;;;;;;;;;;;;;;21.77;75.19;98836.03;5054431;28;901;-59
2021/07/19 03:40:18;;;;;;;;;;;;;;;21.90;75.49;98834.81;5054813;28;1949;-59
2021/07/19 03:42:46;;;;;;;;;;;;;;;22.05;75.74;98837.44;5054335;28;838;-59
2021/07/19 03:45:13;;;;;;;;;;;;;;;22.16;76.33;98838.25;5054311;28;870;-59
2021/07/19 03:47:41;;;;;;;;;;;;;;;22.23;75.52;98851.09;5054159;28;842;-59
2021/07/19 03:50:09;;;;;;;;;;;;;;;22.32;75.17;98852.91;5053962;28;819;-59
2021/07/19 03:52:39;;;;;;;;;;;;;;;22.28;75.15;98855.22;5054149;28;910;-59
2021/07/19 03:55:07;;;;;;;;;;;;;;;22.32;74.90;98844.47;5053976;28;846;-59
2021/07/19 03:57:38;;;;;;;;;;;;;;;22.45;74.35;98852.44;5036079;28;909;-59
2021/07/19 04:00:05;;;;;;;;;;;;;;;22.54;73.93;98855.03;5053651;28;1894;-59
2021/07/19 04:02:33;;;;;;;;;;;;;;;22.63;73.71;98847.09;5053748;28;826;-59
2021/07/19 04:05:06;;;;;;;;;;;;;;;22.65;73.31;98843.78;5053946;28;819;-59
2021/07/19 04:07:53;;;;;;;;;;;;;;;22.86;73.01;98835.13;5053819;28;926;-59
2021/07/19 04:10:20;;;;;;;;;;;;;;;22.96;72.85;98837.19;5053370;28;1883;-59
2021/07/19 04:12:48;;;;;;;;;;;;;;;23.00;72.82;98845.34;5053340;28;1047;-59
2021/07/19 04:15:15;;;;;;;;;;;;;;;23.00;72.94;98862.25;5053104;28;1270;-60
2021/07/19 04:17:42;;;;;;;;;;;;;;;23.00;73.08;98868.72;5053365;28;969;-59
2021/07/19 04:20:10;;;;;;;;;;;;;;;22.90;73.23;98861.00;5053509;28;1918;-59
2021/07/19 04:22:38;;;;;;;;;;;;;;;22.80;73.76;98858.41;5053513;28;1069;-59
2021/07/19 04:25:06;;;;;;;;;;;;;;;22.79;73.79;98870.19;5053544;28;791;-60
2021/07/19 04:27:34;;;;;;;;;;;;;;;23.02;73.56;98874.63;5053712;28;977;-59
2021/07/19 04:30:01;;;;;;;;;;;;;;;23.47;72.77;98871.03;5053384;28;879;-59
2021/07/19 04:32:28;;;;;;;;;;;;;;;24.08;71.59;98869.34;5053379;28;843;-59
2021/07/19 04:34:54;;;;;;;;;;;;;;;24.59;69.82;98861.44;5053459;28;819;-59
2021/07/19 04:37:21;;;;;;;;;;;;;;;24.82;69.11;98852.84;5053298;28;826;-59
2021/07/19 04:39:49;;;;;;;;;;;;;;;24.82;69.08;98852.84;5053628;28;1952;-59
2021/07/19 04:42:16;;;;;;;;;;;;;;;24.90;69.05;98853.81;5053341;28;985;-59
2021/07/19 04:44:43;;;;;;;;;;;;;;;25.08;68.77;98854.44;5053205;28;861;-59
2021/07/19 04:47:10;;;;;;;;;;;;;;;25.19;68.56;98855.09;5053100;28;890;-60
2021/07/19 04:49:41;;;;;;;;;;;;;;;25.28;68.67;98854.03;5053003;28;832;-60
2021/07/19 04:52:08;;;;;;;;;;;;;;;25.38;66.68;98858.06;5034971;28;811;-59
2021/07/19 04:54:39;;;;;;;;;;;;;;;25.51;66.43;98865.16;5052683;28;950;-59
2021/07/19 04:57:08;;;;;;;;;;;;;;;25.65;65.94;98873.25;5052638;28;878;-59
2021/07/19 04:59:38;;;;;;;;;;;;;;;25.77;65.13;98871.06;5052707;28;1894;-59
2021/07/19 05:02:08;;;;;;;;;;;;;;;26.01;64.28;98872.38;5052826;28;945;-60
2021/07/19 05:04:35;;;;;;;;;;;;;;;26.20;63.72;98876.03;5052555;28;819;-59
2021/07/19 05:07:03;;;;;;;;;;;;;;;26.46;63.04;98871.84;5052465;28;818;-60
2021/07/19 05:14:40;;;;;;;;;;;;;;;27.17;60.51;98870.53;5353678;22;1660;-60
2021/07/19 05:17:09;;;;;;;;;;;;;;;27.34;59.72;98881.63;5052510;28;904;-59
2021/07/19 05:19:37;;;;;;;;;;;;;;;27.74;59.40;98892.28;5052148;28;1980;-60
2021/07/19 05:22:13;;;;;;;;;;;;;;;28.20;57.29;98885.22;5034338;28;840;-60
2021/07/19 05:24:43;;;;;;;;;;;;;;;28.97;55.34;98897.53;5052088;28;959;-60
2021/07/19 05:27:11;;;;;;;;;;;;;;;29.54;53.19;98882.75;5034301;28;861;-60
2021/07/19 05:29:38;;;;;;;;;;;;;;;29.77;52.78;98882.94;5052246;28;892;-60
2021/07/19 05:32:05;;;;;;;;;;;;;;;29.81;52.37;98882.56;5052763;28;767;-60
2021/07/19 05:34:33;;;;;;;;;;;;;;;30.11;52.44;98879.94;5052970;28;795;-60
2021/07/19 05:37:00;;;;;;;;;;;;;;;30.63;50.31;98890.63;5052567;28;838;-60
2021/07/19 05:39:27;;;;;;;;;;;;;;;31.44;47.89;98876.94;5052062;28;1914;-59
2021/07/19 05:41:53;;;;;;;;;;;;;;;31.63;48.59;98888.75;5052078;28;866;-59
2021/07/19 05:44:21;;;;;;;;;;;;;;;31.89;47.08;98889.66;5052405;28;778;-60
2021/07/19 05:46:47;;;;;;;;;;;;;;;32.13;46.79;98889.09;5052285;28;826;-60
2021/07/19 05:49:14;;;;;;;;;;;;;;;33.05;45.49;98893.66;5051920;28;865;-60
2021/07/19 05:51:40;;;;;;;;;;;;;;;33.82;43.41;98903.78;5052033;28;825;-60
2021/07/19 05:54:08;;;;;;;;;;;;;;;34.47;41.81;98906.34;5051773;28;866;-60
2021/07/19 05:56:35;;;;;;;;;;;;;;;34.65;41.28;98898.50;5051684;28;849;-60
2021/07/19 05:59:02;;;;;;;;;;;;;;;34.25;42.33;98901.66;5052036;28;864;-60
2021/07/19 06:01:29;;;;;;;;;;;;;;;34.58;41.21;98905.06;5051681;28;1910;-60
2021/07/19 06:03:59;;;;;;;;;;;;;;;34.42;41.77;98903.75;5052558;28;778;-59
2021/07/19 06:06:26;;;;;;;;;;;;;;;34.72;41.22;98894.03;5051575;28;921;-59
2021/07/19 06:08:53;;;;;;;;;;;;;;;34.73;40.43;98896.28;5051566;28;830;-59
2021/07/19 06:11:20;;;;;;;;;;;;;;;33.19;43.71;98901.97;5051471;28;923;-60
2021/07/19 06:13:48;;;;;;;;;;;;;;;33.52;43.74;98903.44;5051186;28;1328;-60
2021/07/19 06:16:14;;;;;;;;;;;;;;;34.55;41.17;98901.28;5051524;28;826;-59
2021/07/19 06:18:41;;;;;;;;;;;;;;;35.04;39.79;98904.50;5051539;28;825;-59
2021/07/19 06:21:08;;;;;;;;;;;;;;;35.43;39.35;98904.69;5051327;28;1914;-59
2021/07/19 06:23:35;;;;;;;;;;;;;;;34.98;40.16;98901.13;5051431;28;830;-59
2021/07/19 06:26:02;;;;;;;;;;;;;;;35.22;40.03;98907.31;5051416;28;873;-59
2021/07/19 06:28:28;;;;;;;;;;;;;;;35.27;39.42;98906.28;5051608;28;865;-59
2021/07/19 06:30:54;;;;;;;;;;;;;;;35.57;39.08;98908.66;5051455;28;906;-59
2021/07/19 06:33:21;;;;;;;;;;;;;;;35.78;38.57;98905.28;5051890;28;754;-59
2021/07/19 06:35:48;;;;;;;;;;;;;;;35.84;39.15;98909.97;5051380;28;909;-59
2021/07/19 06:38:15;;;;;;;;;;;;;;;36.65;37.71;98906.72;5051996;28;786;-60
2021/07/19 06:40:42;;;;;;;;;;;;;;;36.22;37.32;98906.41;5051867;28;1894;-59
2021/07/19 06:43:08;;;;;;;;;;;;;;;35.46;39.69;98909.22;5051534;28;1217;-59
2021/07/19 06:45:34;;;;;;;;;;;;;;;35.43;39.90;98904.69;5051288;28;858;-59
2021/07/19 06:48:01;;;;;;;;;;;;;;;35.92;39.00;98901.97;5052298;28;874;-59
2021/07/19 06:50:28;;;;;;;;;;;;;;;36.29;38.59;98899.72;5055228;28;825;-60
2021/07/19 06:52:55;;;;;;;;;;;;;;;36.35;37.92;98902.31;5055032;28;838;-59
2021/07/19 06:55:22;;;;;;;;;;;;;;;35.67;38.99;98908.72;5055282;28;908;-59
2021/07/19 06:57:48;;;;;;;;;;;;;;;35.96;38.69;98897.28;5054934;28;854;-59
2021/07/19 07:00:15;;;;;;;;;;;;;;;36.32;36.95;98901.41;5054804;28;1926;-59
2021/07/19 07:02:42;;;;;;;;;;;;;;;36.50;38.25;98901.25;5054805;28;898;-59
2021/07/19 07:05:09;;;;;;;;;;;;;;;36.59;37.98;98898.38;5054845;28;858;-59
2021/07/19 07:07:35;;;;;;;;;;;;;;;36.81;36.84;98900.59;5054799;28;852;-59
2021/07/19 07:10:03;;;;;;;;;;;;;;;37.36;36.38;98901.66;5054793;28;845;-59
2021/07/19 07:12:30;;;;;;;;;;;;;;;38.13;35.22;98899.75;5020275;28;1250;-59
2021/07/19 07:14:57;;;;;;;;;;;;;;;38.47;33.95;98904.16;5054380;28;1213;-59
2021/07/19 07:17:24;;;;;;;;;;;;;;;38.41;33.58;98895.13;5054616;28;806;-59
2021/07/19 07:19:51;;;;;;;;;;;;;;;37.85;34.31;98895.66;5054487;28;1914;-59
2021/07/19 07:22:16;;;;;;;;;;;;;;;38.34;32.39;98904.72;5054586;28;790;-59
2021/07/19 07:24:43;;;;;;;;;;;;;;;38.63;31.90;98895.84;5054488;28;869;-59
2021/07/19 07:27:11;;;;;;;;;;;;;;;39.23;31.57;98905.41;5054465;28;810;-59
2021/07/19 07:29:38;;;;;;;;;;;;;;;39.32;31.79;98908.16;5054480;28;826;-59
2021/07/19 07:32:05;;;;;;;;;;;;;;;39.20;32.09;98898.75;5054399;28;925;-59
2021/07/19 07:34:32;;;;;;;;;;;;;;;39.17;32.69;98899.97;5054219;28;909;-59
2021/07/19 07:36:58;;;;;;;;;;;;;;;39.00;31.11;98903.97;5054303;28;865;-59
2021/07/19 07:39:25;;;;;;;;;;;;;;;38.85;32.92;98898.66;5054079;28;1949;-59
2021/07/19 07:41:52;;;;;;;;;;;;;;;39.00;32.43;98898.94;5054058;28;818;-59
2021/07/19 07:44:18;;;;;;;;;;;;;;;38.82;32.78;98905.69;5054269;28;858;-59
2021/07/19 07:46:45;;;;;;;;;;;;;;;38.31;33.74;98909.63;5054116;28;966;-59
2021/07/19 07:49:12;;;;;;;;;;;;;;;38.58;32.57;98906.38;5054025;28;877;-59
2021/07/19 07:51:39;;;;;;;;;;;;;;;38.87;32.02;98907.44;5053980;28;835;-59
2021/07/19 07:54:05;;;;;;;;;;;;;;;38.88;31.23;98912.63;5036229;28;1043;-59
2021/07/19 07:56:33;;;;;;;;;;;;;;;38.81;32.16;98910.69;5053769;28;950;-59
2021/07/19 07:58:59;;;;;;;;;;;;;;;39.09;31.51;98913.91;5053456;28;798;-59
2021/07/19 08:01:26;;;;;;;;;;;;;;;39.08;30.74;98913.16;5054012;28;1886;-59
2021/07/19 08:03:52;;;;;;;;;;;;;;;38.98;31.23;98909.63;5053800;28;822;-59
2021/07/19 08:06:19;;;;;;;;;;;;;;;38.93;31.02;98899.19;5053634;28;945;-59
2021/07/19 08:08:45;;;;;;;;;;;;;;;38.73;31.07;98899.41;5053745;28;853;-59
2021/07/19 08:11:13;;;;;;;;;;;;;;;37.19;33.59;98905.53;5053530;28;881;-59
2021/07/19 08:13:39;;;;;;;;;;;;;;;37.23;34.80;98902.19;5053421;28;1156;-59
2021/07/19 08:16:06;;;;;;;;;;;;;;;38.30;33.66;98902.34;5053570;28;810;-59
2021/07/19 08:18:33;;;;;;;;;;;;;;;38.98;32.07;98903.84;5053433;28;1198;-59
2021/07/19 08:21:00;;;;;;;;;;;;;;;39.77;32.09;98892.81;5053324;28;1910;-59
2021/07/19 08:23:27;;;;;;;;;;;;;;;40.60;29.22;98893.34;5053581;28;881;-59
2021/07/19 08:25:53;;;;;;;;;;;;;;;40.19;28.47;98897.53;5053312;28;881;-59
2021/07/19 08:28:20;;;;;;;;;;;;;;;40.20;29.10;98895.38;5053320;28;814;-59
2021/07/19 08:30:46;;;;;;;;;;;;;;;40.76;28.63;98896.44;5053198;28;858;-59
2021/07/19 08:33:13;;;;;;;;;;;;;;;41.28;27.44;98897.84;5053241;28;782;-59
2021/07/19 08:35:39;;;;;;;;;;;;;;;41.38;27.84;98897.66;5053252;28;893;-59
2021/07/19 08:38:06;;;;;;;;;;;;;;;39.61;29.46;98901.28;5053181;28;909;-59
2021/07/19 08:40:33;;;;;;;;;;;;;;;38.80;28.62;98907.06;5052832;28;1976;-59
2021/07/19 08:43:03;;;;;;;;;;;;;;;38.77;29.35;98905.44;5053004;28;873;-59
2021/07/19 08:45:30;;;;;;;;;;;;;;;39.28;28.71;98905.00;5052967;28;913;-59
2021/07/19 08:47:58;;;;;;;;;;;;;;;39.81;28.51;98904.63;5052789;28;930;-60
2021/07/19 08:50:25;;;;;;;;;;;;;;;39.87;27.55;98904.28;5052858;28;838;-59
2021/07/19 08:52:53;;;;;;;;;;;;;;;39.77;27.74;98899.34;5052736;28;917;-59
2021/07/19 08:55:20;;;;;;;;;;;;;;;39.91;27.47;98901.63;5034965;28;2132;-59
2021/07/19 08:57:48;;;;;;;;;;;;;;;39.80;27.66;98900.25;5052640;28;926;-59
2021/07/19 09:00:15;;;;;;;;;;;;;;;39.96;27.89;98891.81;5034947;28;1886;-59
2021/07/19 09:02:42;;;;;;;;;;;;;;;40.31;27.17;98888.06;5052803;28;814;-59
2021/07/19 09:05:10;;;;;;;;;;;;;;;40.42;27.77;98893.06;5052837;28;857;-59
2021/07/19 09:07:35;;;;;;;;;;;;;;;40.10;28.55;98895.53;5052536;28;818;-59
2021/07/19 09:10:03;;;;;;;;;;;;;;;40.07;29.25;98896.78;5052213;28;798;-59
2021/07/19 09:12:40;;;;;;;;;;;;;;;39.96;27.79;98892.56;5052149;28;919;-59
2021/07/19 09:15:08;;;;;;;;;;;;;;;39.88;28.82;98897.88;5052124;28;1240;-59
2021/07/19 09:17:35;;;;;;;;;;;;;;;39.69;28.95;98883.66;5052320;28;924;-59
2021/07/19 09:20:03;;;;;;;;;;;;;;;39.59;29.51;98892.47;5052249;28;1910;-59
2021/07/19 09:22:33;;;;;;;;;;;;;;;39.74;29.46;98894.84;5052588;28;782;-59
2021/07/19 09:25:09;;;;;;;;;;;;;;;39.19;28.99;98895.09;5052292;28;826;-59
2021/07/19 09:27:39;;;;;;;;;;;;;;;39.32;28.90;98890.81;5052059;28;946;-59
2021/07/19 09:30:13;;;;;;;;;;;;;;;39.96;29.28;98886.75;5052707;28;770;-59
2021/07/19 09:33:13;;;;;;;;;;;;;;;39.60;30.18;98886.06;5052052;28;868;-59
2021/07/19 09:35:45;;;;;;;;;;;;;;;37.78;32.59;98888.72;4991196;28;1185;-59
2021/07/19 09:38:13;;;;;;;;;;;;;;;36.27;34.95;98890.19;5051964;28;913;-59
2021/07/19 09:40:40;;;;;;;;;;;;;;;35.28;36.44;98885.56;5051886;28;1882;-59
2021/07/19 09:43:14;;;;;;;;;;;;;;;34.92;37.66;98881.31;5051928;28;881;-59
2021/07/19 09:45:40;;;;;;;;;;;;;;;35.31;37.08;98883.63;5051892;28;845;-59
2021/07/19 09:48:08;;;;;;;;;;;;;;;35.08;37.62;98881.06;5051757;28;879;-59
2021/07/19 09:50:39;;;;;;;;;;;;;;;36.15;36.50;98882.19;5051783;28;822;-59
2021/07/19 09:53:06;;;;;;;;;;;;;;;37.28;34.75;98878.81;5051764;28;819;-59
2021/07/19 09:55:33;;;;;;;;;;;;;;;37.83;34.08;98887.63;5051751;28;905;-59
2021/07/19 09:58:00;;;;;;;;;;;;;;;37.25;34.37;98888.69;5051742;28;884;-59
2021/07/19 10:00:28;;;;;;;;;;;;;;;36.74;34.14;98885.81;5051549;28;1941;-59
2021/07/19 10:02:55;;;;;;;;;;;;;;;36.13;35.72;98884.16;5017335;28;1480;-59
2021/07/19 10:05:25;;;;;;;;;;;;;;;36.09;36.93;98887.44;5051629;28;885;-59
2021/07/19 10:07:52;;;;;;;;;;;;;;;35.92;37.08;98885.47;5051463;28;961;-59
2021/07/19 10:10:31;;;;;;;;;;;;;;;35.73;38.64;98882.56;5051397;28;862;-60
2021/07/19 10:12:58;;;;;;;;;;;;;;;35.72;38.47;98881.81;5051476;28;999;-59
2021/07/19 10:15:25;;;;;;;;;;;;;;;35.33;38.06;98878.03;5051229;28;1251;-59
2021/07/19 10:17:53;;;;;;;;;;;;;;;35.25;38.16;98877.38;5051527;28;850;-60
2021/07/19 10:20:19;;;;;;;;;;;;;;;35.96;38.30;98871.41;5051281;28;1970;-59
2021/07/19 10:22:46;;;;;;;;;;;;;;;36.79;37.13;98873.19;5054992;28;921;-59
2021/07/19 10:25:14;;;;;;;;;;;;;;;37.15;36.78;98874.34;5058038;28;850;-59
2021/07/19 10:27:41;;;;;;;;;;;;;;;37.35;37.02;98883.63;5057919;28;863;-59
2021/07/19 10:30:09;;;;;;;;;;;;;;;37.61;35.52;98880.34;5058121;28;885;-59
2021/07/19 10:32:37;;;;;;;;;;;;;;;37.76;35.48;98877.06;5057963;28;881;-60
2021/07/19 10:35:05;;;;;;;;;;;;;;;36.91;36.12;98878.31;5057947;28;857;-59
2021/07/19 10:37:47;;;;;;;;;;;;;;;35.68;36.83;98880.75;5058190;28;826;-59
2021/07/19 10:40:17;;;;;;;;;;;;;;;35.23;38.41;98874.34;5057887;28;1965;-60
2021/07/19 10:42:44;;;;;;;;;;;;;;;35.26;38.57;98870.31;5057879;28;1035;-59
2021/07/19 10:45:11;;;;;;;;;;;;;;;35.79;37.63;98877.28;5057944;28;842;-59
2021/07/19 10:47:52;;;;;;;;;;;;;;;36.27;35.99;98875.81;5057731;28;933;-59
2021/07/19 10:50:21;;;;;;;;;;;;;;;36.81;35.30;98871.81;5057743;28;964;-60
2021/07/19 10:52:50;;;;;;;;;;;;;;;37.38;33.76;98867.25;5058049;28;945;-59
2021/07/19 10:55:27;;;;;;;;;;;;;;;37.21;33.36;98865.34;5057802;28;906;-60
2021/07/19 10:58:04;;;;;;;;;;;;;;;36.42;34.61;98869.75;5057792;28;845;-59
2021/07/19 11:00:40;;;;;;;;;;;;;;;35.80;36.26;98866.53;5057745;28;1940;-59
2021/07/19 11:03:07;;;;;;;;;;;;;;;35.24;36.72;98864.41;5057813;28;815;-60
2021/07/19 11:05:38;;;;;;;;;;;;;;;34.87;37.30;98868.00;5057681;28;830;-59
2021/07/19 11:08:05;;;;;;;;;;;;;;;34.35;38.15;98868.84;5058497;28;813;-59
2021/07/19 11:10:43;;;;;;;;;;;;;;;33.94;39.24;98864.69;5058027;28;770;-60
2021/07/19 11:13:09;;;;;;;;;;;;;;;33.72;38.90;98867.19;5057733;28;906;-59
2021/07/19 11:15:38;;;;;;;;;;;;;;;33.73;39.03;98860.09;5057351;28;1439;-59
2021/07/19 11:18:14;;;;;;;;;;;;;;;33.72;38.75;98867.19;5057572;28;819;-59
2021/07/19 11:20:42;;;;;;;;;;;;;;;33.54;38.87;98868.47;5058256;28;1898;-59
2021/07/19 11:23:09;;;;;;;;;;;;;;;33.50;39.54;98859.53;5057693;28;941;-59
2021/07/19 11:25:41;;;;;;;;;;;;;;;33.79;39.89;98864.84;5057881;28;881;-60
2021/07/19 11:28:18;;;;;;;;;;;;;;;33.84;39.92;98864.63;5057531;28;806;-59
2021/07/19 11:31:03;;;;;;;;;;;;;;;33.79;40.07;98862.75;5057430;28;1249;-59
2021/07/19 11:33:37;;;;;;;;;;;;;;;33.80;40.41;98866.34;5055960;28;886;-59
2021/07/19 11:36:15;;;;;;;;;;;;;;;33.71;40.34;98865.69;5054204;28;1000;-59
2021/07/19 11:38:42;;;;;;;;;;;;;;;33.98;39.98;98856.44;5054242;28;834;-59
2021/07/19 11:41:19;;;;;;;;;;;;;;;35.12;38.67;98850.59;5054202;28;1890;-60
2021/07/19 11:43:46;;;;;;;;;;;;;;;35.82;35.92;98835.81;5054127;28;1245;-59
2021/07/19 11:46:22;;;;;;;;;;;;;;;36.28;35.92;98855.09;5054175;28;838;-59
2021/07/19 11:48:49;;;;;;;;;;;;;;;36.47;34.57;98853.56;5053978;28;938;-60
2021/07/19 11:51:19;;;;;;;;;;;;;;;37.19;35.22;98848.69;5053936;28;937;-60
2021/07/19 11:53:45;;;;;;;;;;;;;;;37.61;34.09;98842.88;5053863;28;854;-59
2021/07/19 11:56:13;;;;;;;;;;;;;;;37.85;33.92;98849.53;5054013;28;854;-60
2021/07/19 11:58:58;;;;;;;;;;;;;;;37.96;33.56;98855.38;5053886;28;825;-59
2021/07/19 12:01:28;;;;;;;;;;;;;;;37.11;33.14;98853.88;5053749;28;1887;-60
2021/07/19 12:03:56;;;;;;;;;;;;;;;35.89;34.70;98849.31;5053747;28;846;-60
2021/07/19 12:06:23;;;;;;;;;;;;;;;35.33;36.05;98843.56;5053863;28;839;-60
2021/07/19 12:09:08;;;;;;;;;;;;;;;35.94;36.54;98842.50;5053672;28;814;-60
2021/07/19 12:11:35;;;;;;;;;;;;;;;36.85;34.56;98843.31;5035789;28;1377;-60
2021/07/19 12:14:05;;;;;;;;;;;;;;;37.50;33.75;98839.28;5053535;28;1354;-60
2021/07/19 12:16:36;;;;;;;;;;;;;;;37.05;33.01;98844.78;5053493;28;992;-60
2021/07/19 12:19:04;;;;;;;;;;;;;;;35.69;34.75;98848.53;5053536;28;873;-60
2021/07/19 12:21:36;;;;;;;;;;;;;;;35.28;35.59;98839.63;5053289;28;1977;-60
2021/07/19 12:24:03;;;;;;;;;;;;;;;35.00;36.11;98851.75;5053696;28;786;-60
2021/07/19 12:26:33;;;;;;;;;;;;;;;36.00;35.25;98842.22;5053842;28;806;-60
2021/07/19 12:29:00;;;;;;;;;;;;;;;37.09;33.21;98841.44;5053338;28;802;-60
2021/07/19 12:31:47;;;;;;;;;;;;;;;36.92;32.39;98839.53;5053261;28;811;-60
2021/07/19 12:34:18;;;;;;;;;;;;;;;36.48;33.66;98840.69;5053248;28;837;-60
2021/07/19 12:36:51;;;;;;;;;;;;;;;35.41;35.14;98847.06;5053127;28;1012;-60
2021/07/19 12:39:21;;;;;;;;;;;;;;;34.88;36.23;98840.03;5053176;28;811;-60
2021/07/19 12:41:49;;;;;;;;;;;;;;;36.19;36.28;98841.47;5053017;28;1947;-60
2021/07/19 12:44:18;;;;;;;;;;;;;;;36.78;33.85;98837.13;5053053;28;1174;-60
2021/07/19 12:46:46;;;;;;;;;;;;;;;36.49;33.20;98822.81;5051819;28;874;-60
2021/07/19 12:49:24;;;;;;;;;;;;;;;35.57;34.36;98836.06;5052883;28;1167;-60
2021/07/19 12:51:56;;;;;;;;;;;;;;;35.76;35.38;98833.28;5052919;28;787;-60
2021/07/19 12:54:22;;;;;;;;;;;;;;;36.35;33.75;98839.03;5052838;28;814;-60
2021/07/19 12:56:49;;;;;;;;;;;;;;;35.51;34.56;98835.63;5052816;28;809;-60
2021/07/19 12:59:19;;;;;;;;;;;;;;;35.06;35.97;98835.75;5052724;28;897;-60
2021/07/19 13:01:48;;;;;;;;;;;;;;;34.77;36.62;98827.75;5052579;28;1886;-60
2021/07/19 13:04:20;;;;;;;;;;;;;;;35.90;35.84;98821.31;5052575;28;873;-60
2021/07/19 13:06:47;;;;;;;;;;;;;;;36.77;33.45;98823.38;5052519;28;1250;-60
2021/07/19 13:09:20;;;;;;;;;;;;;;;37.56;32.40;98828.19;5052643;28;816;-60
2021/07/19 13:11:51;;;;;;;;;;;;;;;37.15;32.42;98834.00;5052357;28;921;-60
2021/07/19 13:14:19;;;;;;;;;;;;;;;35.85;34.44;98828.88;5052307;28;1243;-60
2021/07/19 13:16:59;;;;;;;;;;;;;;;35.39;34.42;98826.81;5052415;28;834;-60